Airfield :
LOGIN :

Register | Disclaimer

   EN    FR    IT 

 










Legend :    VFR   Marginal VFR   IFR   Intensive IFR   Very Intensive IFR
Visi :
Ceiling :
>= 8 km
>= 3000ft
5 to 8 km
1000 to 3000 ft
1500m to 5 km
500 to 1000 ft
800 to 1500m
200 to 500 ft
< 800m
< 200 ft
Symbols :   Thunderstorms  Fog  Heavy snow  Heavy precipitations  Wind > 20 kt
SIGMETs :     Misc.  Thunderstorms  Icing  Turbulence  Mountain Waves  Volcanic Ashes






- Airport Elevation : 119 ft
- IATA code : WAT


EIWF - Waterford

CURRENT METAR :
  • 141500Z 24019G29KT 190V270 9999 FEW022 SCT035 11/07 Q1020

EXPIRED METARs :
  • 141430Z 24020G30KT 180V300 9999 FEW022 SCT035 11/08 Q1020
  • 141400Z 24018G28KT 200V290 9999 FEW032 11/08 Q1020
  • 141330Z 24018KT 200V280 9999 VCSH FEW020 SCT038 BKN060 10/07 Q1021
  • 141300Z 23015KT 190V260 9999 -SHRA FEW020 SCT038 BKN060 10/07 Q1022
  • 141200Z 24015KT 210V270 9999 FEW034 SCT034 BKN058 10/06 Q1022
  • 141130Z 23015KT 190V270 9999 FEW021 SCT049 10/06 Q1023
  • 141100Z 23014KT 200V260 9999 FEW017 10/06 Q1023
  • 141030Z 24013KT 200V270 9999 FEW022 SCT051 11/07 Q1023

TAF TAF EIWF
Valid from the 14 at 15:00 until the 15 at 00:00 UTC


141400Z 1415/1424 23018KT 9999 FEW040
TEMPO 1415/1424 23020G32KT
PROB40
TEMPO 1415/1424 -SHRA FEW018CB
ATIS : +353 51 877 000



MET'MAP, your aeronautical weather chart ! - Copyright ORBIFLY December 2007 - Disclaimer

ORBIFLY MET'MAP TEAM :

Programming & Development : Alexandra Zaïnal
Original concept : Baudouin d'Aumeries
Technical & hardware support : Manuel Goepfert
Assistance : Marc-Olivier Méhu




SOURCES & CREDITS :

   NOAA